Terminal Aerodrome Forecast
Issued by NWS Shreveport, LA

Home | Current Version | Previous Version | Text Only | Print | Product List | Glossary On
Versions: 1 2 3 4 5 6 7 8 9 10 11 12 13 14 15 16 17
765
FTUS44 KSHV 161123
TAFSHV
TAF
KSHV 161123Z 1612/1712 34014G22KT 4SM -SN BR SCT010 OVC020
      TEMPO 1612/1614 1SM -SN BR OVC008
     FM161500 36012G20KT P6SM SCT040 BKN120
     FM162300 35010KT P6SM SKC
     FM170500 34006KT P6SM SKC=

USA.gov is the U.S. government's official web portal to all federal, state and local government web resources and services.